Seigling, South Carolina
Current Conditions -  °F | °C
As of 2:35 PM on Thursday 27 Nov 2014 (Local Time) from KAQX Reporting Station
Scattered Clouds Scattered Clouds  
Wind Chill: 54°   Ceiling: Unl
Heat Index: 54°   Visibility: 10mi
Dew Point: 30°   Wind: 14mph
Humidity: 41%   Direction: 310°NW
Pressure: 30.16"   Gusts: 25mph
Location:  33.0065°N, 81.4013°W
Report Text: KAQX 271935Z AUTO 31012G22KT 10SM SCT060 12/M01 A3016 RMK AO2
Loading
Personal Weather Stations






























Interactive Weather Map New forecast layout! Learn more

10-Day Weather Forecast

Advertisements
Track Severe Weather on mobile